Terminal Aerodrome Forecast
Issued by NWS

Current Version | Previous Version | Text Only | Print | Product List | Glossary On
Versions: 1 2 3 4 5 6 7 8 9 10 11 12 13 14 15 16 17 18 19 20 21 22 23 24
000
FTUS45 KBOU 241721
TAFAPA
TAF
KAPA 241721Z 2418/2518 26010KT P6SM FEW250
     FM242000 30010G17KT P6SM FEW090 FEW200
     FM250100 25007KT P6SM FEW090 SCT120
     FM250300 19008KT P6SM FEW090 BKN200
     FM251400 25006KT P6SM FEW090 BKN200=

USA.gov is the U.S. government's official web portal to all federal, state and local government web resources and services.